Terminal Aerodrome Forecast
Issued by NWS Tampa Bay Area, FL

Home | Current Version | Previous Version | Text Only | Print | Product List | Glossary On
Versions: 1 2 3 4 5 6 7 8 9 10 11 12 13 14 15 16 17 18
000
FTUS42 KTBW 272321
TAFSRQ
TAF
KSRQ 272321Z 2800/2824 05005KT P6SM VCSH SCT035 BKN120
     FM280300 07005KT P6SM FEW030 BKN150
     FM281400 08010KT P6SM SCT040 BKN250
     FM281800 08011KT P6SM VCTS BKN035CB=

USA.gov is the U.S. government's official web portal to all federal, state and local government web resources and services.